sensor_id;sensor_type;location;lat;lon;timestamp;pressure;altitude;pressure_sealevel;temperature;humidity
29941;BME280;16801;53.562;10.038;2023-03-04T00:01:08;102001.34;;;8.89;70.52
29941;BME280;16801;53.562;10.038;2023-03-04T00:04:29;101991.88;;;8.83;70.98
29941;BME280;16801;53.562;10.038;2023-03-04T00:07:52;101999.97;;;9.10;70.06
29941;BME280;16801;53.562;10.038;2023-03-04T00:11:12;102016.31;;;9.21;69.31
29941;BME280;16801;53.562;10.038;2023-03-04T00:14:33;102004.56;;;9.22;69.45
29941;BME280;16801;53.562;10.038;2023-03-04T00:17:54;102000.81;;;9.25;69.18
29941;BME280;16801;53.562;10.038;2023-03-04T00:21:15;101992.56;;;9.28;68.54
29941;BME280;16801;53.562;10.038;2023-03-04T00:24:37;102006.19;;;9.25;68.35
29941;BME280;16801;53.562;10.038;2023-03-04T00:27:58;101998.94;;;9.39;67.76
29941;BME280;16801;53.562;10.038;2023-03-04T00:31:19;101988.06;;;9.14;67.98
29941;BME280;16801;53.562;10.038;2023-03-04T00:34:40;101990.16;;;9.23;68.82
29941;BME280;16801;53.562;10.038;2023-03-04T00:38:01;101994.41;;;8.99;69.57
29941;BME280;16801;53.562;10.038;2023-03-04T00:41:23;101989.88;;;9.14;68.86
29941;BME280;16801;53.562;10.038;2023-03-04T00:44:44;101973.38;;;9.06;68.83
29941;BME280;16801;53.562;10.038;2023-03-04T00:48:05;101987.13;;;9.01;68.60
29941;BME280;16801;53.562;10.038;2023-03-04T00:51:26;101970.91;;;9.29;68.11
29941;BME280;16801;53.562;10.038;2023-03-04T00:54:47;101980.75;;;9.43;68.04
29941;BME280;16801;53.562;10.038;2023-03-04T00:58:09;101959.50;;;9.26;67.78
29941;BME280;16801;53.562;10.038;2023-03-04T01:01:30;101970.22;;;9.40;68.00
29941;BME280;16801;53.562;10.038;2023-03-04T01:04:51;101963.97;;;9.39;68.02
29941;BME280;16801;53.562;10.038;2023-03-04T01:08:11;101948.28;;;9.19;67.96
29941;BME280;16801;53.562;10.038;2023-03-04T01:11:32;101945.25;;;9.11;68.80
29941;BME280;16801;53.562;10.038;2023-03-04T01:14:55;101955.72;;;9.28;68.07
29941;BME280;16801;53.562;10.038;2023-03-04T01:18:16;101956.06;;;9.24;68.04
29941;BME280;16801;53.562;10.038;2023-03-04T01:21:36;101948.63;;;9.27;68.01
29941;BME280;16801;53.562;10.038;2023-03-04T01:24:57;101935.63;;;9.34;67.97
29941;BME280;16801;53.562;10.038;2023-03-04T01:28:19;101937.16;;;9.38;68.13
29941;BME280;16801;53.562;10.038;2023-03-04T01:31:42;101924.81;;;9.48;67.81
29941;BME280;16801;53.562;10.038;2023-03-04T01:35:03;101922.03;;;9.23;69.09
29941;BME280;16801;53.562;10.038;2023-03-04T01:38:24;101922.97;;;9.48;67.55
29941;BME280;16801;53.562;10.038;2023-03-04T01:41:45;101903.50;;;9.18;69.06
29941;BME280;16801;53.562;10.038;2023-03-04T01:45:10;101903.88;;;9.39;68.05
29941;BME280;16801;53.562;10.038;2023-03-04T01:48:37;101901.09;;;9.14;68.28
29941;BME280;16801;53.562;10.038;2023-03-04T01:51:58;101903.47;;;9.32;68.33
29941;BME280;16801;53.562;10.038;2023-03-04T01:55:20;101901.38;;;9.23;68.86
29941;BME280;16801;53.562;10.038;2023-03-04T01:58:41;101897.56;;;9.40;67.65
29941;BME280;16801;53.562;10.038;2023-03-04T02:02:03;101894.84;;;9.40;67.82
29941;BME280;16801;53.562;10.038;2023-03-04T02:05:25;101895.13;;;9.23;69.09
29941;BME280;16801;53.562;10.038;2023-03-04T02:08:46;101892.28;;;9.38;68.26
29941;BME280;16801;53.562;10.038;2023-03-04T02:12:08;101889.25;;;9.30;68.15
29941;BME280;16801;53.562;10.038;2023-03-04T02:15:29;101880.94;;;9.33;68.50
29941;BME280;16801;53.562;10.038;2023-03-04T02:18:50;101881.63;;;9.49;68.56
29941;BME280;16801;53.562;10.038;2023-03-04T02:22:12;101893.78;;;9.42;68.71
29941;BME280;16801;53.562;10.038;2023-03-04T02:25:37;101868.25;;;9.35;68.92
29941;BME280;16801;53.562;10.038;2023-03-04T02:29:02;101867.97;;;9.52;68.35
29941;BME280;16801;53.562;10.038;2023-03-04T02:32:23;101868.53;;;9.70;67.58
29941;BME280;16801;53.562;10.038;2023-03-04T02:35:44;101865.25;;;9.40;68.65
29941;BME280;16801;53.562;10.038;2023-03-04T02:39:10;101855.84;;;9.59;68.62
29941;BME280;16801;53.562;10.038;2023-03-04T02:42:31;101856.88;;;9.44;69.27
29941;BME280;16801;53.562;10.038;2023-03-04T02:45:53;101847.19;;;9.42;69.12
29941;BME280;16801;53.562;10.038;2023-03-04T02:49:15;101854.31;;;9.16;70.63
29941;BME280;16801;53.562;10.038;2023-03-04T02:52:36;101852.66;;;9.28;69.96
29941;BME280;16801;53.562;10.038;2023-03-04T02:55:57;101839.38;;;9.25;69.97
29941;BME280;16801;53.562;10.038;2023-03-04T02:59:22;101840.81;;;9.30;70.10
29941;BME280;16801;53.562;10.038;2023-03-04T03:02:45;101836.59;;;9.39;70.09
29941;BME280;16801;53.562;10.038;2023-03-04T03:06:06;101827.22;;;9.19;71.03
29941;BME280;16801;53.562;10.038;2023-03-04T03:09:28;101839.00;;;9.43;70.11
29941;BME280;16801;53.562;10.038;2023-03-04T03:12:50;101839.19;;;9.28;71.75
29941;BME280;16801;53.562;10.038;2023-03-04T03:16:11;101829.66;;;9.49;70.71
29941;BME280;16801;53.562;10.038;2023-03-04T03:19:33;101828.22;;;9.43;70.41
29941;BME280;16801;53.562;10.038;2023-03-04T03:22:57;101825.19;;;9.35;69.64
29941;BME280;16801;53.562;10.038;2023-03-04T03:26:18;101830.50;;;9.49;69.85
29941;BME280;16801;53.562;10.038;2023-03-04T03:29:39;101832.53;;;9.46;69.73
29941;BME280;16801;53.562;10.038;2023-03-04T03:33:00;101809.84;;;9.62;69.59
29941;BME280;16801;53.562;10.038;2023-03-04T03:36:23;101809.19;;;9.72;69.26
29941;BME280;16801;53.562;10.038;2023-03-04T03:39:44;101807.69;;;9.68;69.94
29941;BME280;16801;53.562;10.038;2023-03-04T03:43:05;101814.47;;;9.48;70.13
29941;BME280;16801;53.562;10.038;2023-03-04T03:46:25;101820.03;;;9.32;71.43
29941;BME280;16801;53.562;10.038;2023-03-04T03:49:46;101818.63;;;9.27;71.87
29941;BME280;16801;53.562;10.038;2023-03-04T03:53:08;101807.44;;;9.33;73.04
29941;BME280;16801;53.562;10.038;2023-03-04T03:56:29;101808.13;;;9.10;74.20
29941;BME280;16801;53.562;10.038;2023-03-04T03:59:50;101812.00;;;9.06;74.24
29941;BME280;16801;53.562;10.038;2023-03-04T04:03:13;101802.66;;;8.99;74.44
29941;BME280;16801;53.562;10.038;2023-03-04T04:06:35;101815.59;;;9.19;74.08
29941;BME280;16801;53.562;10.038;2023-03-04T04:09:57;101814.19;;;9.13;74.13
29941;BME280;16801;53.562;10.038;2023-03-04T04:13:18;101800.78;;;9.26;73.40
29941;BME280;16801;53.562;10.038;2023-03-04T04:16:39;101793.44;;;9.28;73.41
29941;BME280;16801;53.562;10.038;2023-03-04T04:20:00;101788.25;;;9.12;72.57
29941;BME280;16801;53.562;10.038;2023-03-04T04:23:21;101793.88;;;9.22;72.12
29941;BME280;16801;53.562;10.038;2023-03-04T04:26:43;101793.53;;;9.26;70.93
29941;BME280;16801;53.562;10.038;2023-03-04T04:30:05;101799.66;;;9.16;68.83
29941;BME280;16801;53.562;10.038;2023-03-04T04:33:26;101793.66;;;9.37;67.80
29941;BME280;16801;53.562;10.038;2023-03-04T04:36:47;101780.34;;;9.48;68.20
29941;BME280;16801;53.562;10.038;2023-03-04T04:40:09;101788.41;;;9.36;68.00
29941;BME280;16801;53.562;10.038;2023-03-04T04:43:31;101784.72;;;9.49;66.84
29941;BME280;16801;53.562;10.038;2023-03-04T04:46:52;101789.69;;;9.55;66.91
29941;BME280;16801;53.562;10.038;2023-03-04T04:50:13;101785.41;;;9.53;67.00
29941;BME280;16801;53.562;10.038;2023-03-04T04:53:34;101787.78;;;9.45;66.83
29941;BME280;16801;53.562;10.038;2023-03-04T04:56:55;101778.91;;;9.43;66.67
29941;BME280;16801;53.562;10.038;2023-03-04T05:00:18;101783.53;;;9.28;67.02
29941;BME280;16801;53.562;10.038;2023-03-04T05:03:39;101779.34;;;9.62;66.02
29941;BME280;16801;53.562;10.038;2023-03-04T05:07:00;101767.09;;;9.58;66.06
29941;BME280;16801;53.562;10.038;2023-03-04T05:10:21;101776.22;;;9.81;65.05
29941;BME280;16801;53.562;10.038;2023-03-04T05:13:42;101767.19;;;9.69;65.34
29941;BME280;16801;53.562;10.038;2023-03-04T05:17:05;101768.59;;;9.62;66.90
29941;BME280;16801;53.562;10.038;2023-03-04T05:20:26;101762.78;;;9.30;69.97
29941;BME280;16801;53.562;10.038;2023-03-04T05:23:47;101767.00;;;9.59;69.89
29941;BME280;16801;53.562;10.038;2023-03-04T05:27:07;101766.13;;;9.46;71.66
29941;BME280;16801;53.562;10.038;2023-03-04T05:30:28;101768.25;;;9.29;72.83
29941;BME280;16801;53.562;10.038;2023-03-04T05:33:50;101770.63;;;9.21;72.36
29941;BME280;16801;53.562;10.038;2023-03-04T05:37:11;101773.13;;;9.36;72.21
29941;BME280;16801;53.562;10.038;2023-03-04T05:40:32;101779.88;;;9.29;72.82
29941;BME280;16801;53.562;10.038;2023-03-04T05:43:53;101780.00;;;9.28;72.46
29941;BME280;16801;53.562;10.038;2023-03-04T05:47:15;101773.88;;;9.26;71.25
29941;BME280;16801;53.562;10.038;2023-03-04T05:50:37;101774.06;;;9.23;69.82
29941;BME280;16801;53.562;10.038;2023-03-04T05:53:58;101782.44;;;9.18;67.78
29941;BME280;16801;53.562;10.038;2023-03-04T05:57:18;101787.91;;;9.04;66.40
29941;BME280;16801;53.562;10.038;2023-03-04T06:00:39;101789.31;;;9.10;63.78
29941;BME280;16801;53.562;10.038;2023-03-04T06:04:00;101786.06;;;8.92;63.37
29941;BME280;16801;53.562;10.038;2023-03-04T06:07:22;101785.78;;;9.09;61.57
29941;BME280;16801;53.562;10.038;2023-03-04T06:10:43;101782.47;;;8.79;60.95
29941;BME280;16801;53.562;10.038;2023-03-04T06:14:04;101782.16;;;8.83;59.33
29941;BME280;16801;53.562;10.038;2023-03-04T06:17:25;101785.06;;;9.20;58.65
29941;BME280;16801;53.562;10.038;2023-03-04T06:20:46;101790.44;;;9.20;58.36
29941;BME280;16801;53.562;10.038;2023-03-04T06:24:08;101799.19;;;8.70;59.63
29941;BME280;16801;53.562;10.038;2023-03-04T06:27:29;101803.03;;;8.66;59.08
29941;BME280;16801;53.562;10.038;2023-03-04T06:30:51;101806.72;;;8.65;57.97
29941;BME280;16801;53.562;10.038;2023-03-04T06:34:11;101799.28;;;8.95;57.44
29941;BME280;16801;53.562;10.038;2023-03-04T06:37:35;101813.78;;;8.66;57.90
29941;BME280;16801;53.562;10.038;2023-03-04T06:41:05;101814.72;;;8.79;58.58
29941;BME280;16801;53.562;10.038;2023-03-04T06:44:25;101821.38;;;8.73;58.20
29941;BME280;16801;53.562;10.038;2023-03-04T06:47:46;101822.91;;;8.77;58.48
29941;BME280;16801;53.562;10.038;2023-03-04T06:51:08;101815.59;;;8.79;58.68
29941;BME280;16801;53.562;10.038;2023-03-04T06:54:29;101813.00;;;9.17;57.93
29941;BME280;16801;53.562;10.038;2023-03-04T06:57:52;101838.09;;;8.91;59.27
29941;BME280;16801;53.562;10.038;2023-03-04T07:01:14;101820.06;;;9.06;58.66
29941;BME280;16801;53.562;10.038;2023-03-04T07:04:36;101826.34;;;8.79;59.37
29941;BME280;16801;53.562;10.038;2023-03-04T07:07:57;101812.41;;;9.00;59.38
29941;BME280;16801;53.562;10.038;2023-03-04T07:11:18;101828.81;;;9.09;58.88
29941;BME280;16801;53.562;10.038;2023-03-04T07:14:42;101830.06;;;9.04;59.01
29941;BME280;16801;53.562;10.038;2023-03-04T07:18:03;101828.88;;;9.34;58.33
29941;BME280;16801;53.562;10.038;2023-03-04T07:21:24;101833.59;;;9.31;57.88
29941;BME280;16801;53.562;10.038;2023-03-04T07:24:44;101825.31;;;9.34;58.49
29941;BME280;16801;53.562;10.038;2023-03-04T07:28:05;101824.59;;;9.05;58.68
29941;BME280;16801;53.562;10.038;2023-03-04T07:31:29;101812.72;;;8.95;59.66
29941;BME280;16801;53.562;10.038;2023-03-04T07:34:51;101833.06;;;8.99;59.69
29941;BME280;16801;53.562;10.038;2023-03-04T07:38:12;101829.44;;;9.00;58.71
29941;BME280;16801;53.562;10.038;2023-03-04T07:41:32;101837.34;;;9.28;57.69
29941;BME280;16801;53.562;10.038;2023-03-04T07:44:55;101831.97;;;9.28;57.99
29941;BME280;16801;53.562;10.038;2023-03-04T07:48:17;101829.66;;;9.61;57.22
29941;BME280;16801;53.562;10.038;2023-03-04T07:51:38;101833.09;;;9.38;57.84
29941;BME280;16801;53.562;10.038;2023-03-04T07:54:59;101832.34;;;9.49;58.41
29941;BME280;16801;53.562;10.038;2023-03-04T07:58:19;101848.50;;;9.22;58.96
29941;BME280;16801;53.562;10.038;2023-03-04T08:01:40;101842.41;;;9.33;59.08
29941;BME280;16801;53.562;10.038;2023-03-04T08:05:03;101834.88;;;9.25;59.03
29941;BME280;16801;53.562;10.038;2023-03-04T08:08:24;101837.91;;;9.33;58.40
29941;BME280;16801;53.562;10.038;2023-03-04T08:11:45;101846.56;;;9.51;57.68
29941;BME280;16801;53.562;10.038;2023-03-04T08:15:07;101845.50;;;9.14;57.76
29941;BME280;16801;53.562;10.038;2023-03-04T08:18:28;101857.72;;;9.06;57.63
29941;BME280;16801;53.562;10.038;2023-03-04T08:21:53;101845.72;;;9.11;57.26
29941;BME280;16801;53.562;10.038;2023-03-04T08:25:14;101868.06;;;9.12;57.25
29941;BME280;16801;53.562;10.038;2023-03-04T08:28:35;101861.44;;;8.91;57.18
29941;BME280;16801;53.562;10.038;2023-03-04T08:31:56;101861.44;;;9.17;56.40
29941;BME280;16801;53.562;10.038;2023-03-04T08:35:17;101857.75;;;9.18;55.86
29941;BME280;16801;53.562;10.038;2023-03-04T08:38:39;101869.88;;;9.38;55.94
29941;BME280;16801;53.562;10.038;2023-03-04T08:42:00;101871.84;;;9.09;56.28
29941;BME280;16801;53.562;10.038;2023-03-04T08:45:21;101866.34;;;9.11;56.67
29941;BME280;16801;53.562;10.038;2023-03-04T08:48:42;101853.75;;;9.38;55.08
29941;BME280;16801;53.562;10.038;2023-03-04T08:52:04;101876.34;;;9.09;55.38
29941;BME280;16801;53.562;10.038;2023-03-04T08:55:26;101880.00;;;9.08;56.14
29941;BME280;16801;53.562;10.038;2023-03-04T08:58:47;101862.28;;;9.57;58.91
29941;BME280;16801;53.562;10.038;2023-03-04T09:02:08;101861.44;;;9.69;55.44
29941;BME280;16801;53.562;10.038;2023-03-04T09:05:29;101858.41;;;9.74;54.92
29941;BME280;16801;53.562;10.038;2023-03-04T09:08:50;101864.34;;;10.04;54.07
29941;BME280;16801;53.562;10.038;2023-03-04T09:12:12;101869.72;;;9.27;56.02
29941;BME280;16801;53.562;10.038;2023-03-04T09:15:33;101867.44;;;9.60;55.19
29941;BME280;16801;53.562;10.038;2023-03-04T09:18:55;101871.47;;;10.05;54.07
29941;BME280;16801;53.562;10.038;2023-03-04T09:22:15;101865.94;;;10.06;53.77
29941;BME280;16801;53.562;10.038;2023-03-04T09:25:37;101872.53;;;9.90;53.20
29941;BME280;16801;53.562;10.038;2023-03-04T09:29:00;101871.03;;;9.86;53.40
29941;BME280;16801;53.562;10.038;2023-03-04T09:32:22;101878.28;;;9.46;53.19
29941;BME280;16801;53.562;10.038;2023-03-04T09:35:42;101877.34;;;9.20;53.65
29941;BME280;16801;53.562;10.038;2023-03-04T09:39:04;101869.47;;;9.56;52.88
29941;BME280;16801;53.562;10.038;2023-03-04T09:42:27;101862.38;;;9.68;52.29
29941;BME280;16801;53.562;10.038;2023-03-04T09:45:55;101869.91;;;9.50;52.85
29941;BME280;16801;53.562;10.038;2023-03-04T09:49:18;101861.31;;;9.96;51.96
29941;BME280;16801;53.562;10.038;2023-03-04T09:52:53;101864.13;;;9.94;52.05
29941;BME280;16801;53.562;10.038;2023-03-04T09:56:24;101857.91;;;10.68;59.87
29941;BME280;16801;53.562;10.038;2023-03-04T09:59:49;101865.31;;;9.65;52.76
29941;BME280;16801;53.562;10.038;2023-03-04T10:03:19;101861.94;;;9.49;53.26
29941;BME280;16801;53.562;10.038;2023-03-04T10:06:43;101857.22;;;9.78;52.57
29941;BME280;16801;53.562;10.038;2023-03-04T10:10:18;101864.28;;;9.53;52.77
29941;BME280;16801;53.562;10.038;2023-03-04T10:13:49;101865.81;;;9.70;52.26
29941;BME280;16801;53.562;10.038;2023-03-04T10:17:16;101855.06;;;9.70;51.64
29941;BME280;16801;53.562;10.038;2023-03-04T10:20:51;101856.56;;;9.49;52.10
29941;BME280;16801;53.562;10.038;2023-03-04T10:24:16;101849.03;;;9.92;51.24
29941;BME280;16801;53.562;10.038;2023-03-04T10:27:37;101856.56;;;9.87;50.70
29941;BME280;16801;53.562;10.038;2023-03-04T10:31:01;101854.88;;;10.11;50.61
29941;BME280;16801;53.562;10.038;2023-03-04T10:34:24;101847.09;;;9.68;51.39
29941;BME280;16801;53.562;10.038;2023-03-04T10:37:49;101848.84;;;9.95;50.69
29941;BME280;16801;53.562;10.038;2023-03-04T10:41:12;101866.56;;;9.72;50.84
29941;BME280;16801;53.562;10.038;2023-03-04T10:44:34;101870.91;;;10.00;50.07
29941;BME280;16801;53.562;10.038;2023-03-04T10:47:57;101862.81;;;9.62;49.28
29941;BME280;16801;53.562;10.038;2023-03-04T10:51:22;101857.72;;;9.57;49.91
29941;BME280;16801;53.562;10.038;2023-03-04T10:54:47;101862.63;;;9.78;50.16
29941;BME280;16801;53.562;10.038;2023-03-04T10:58:13;101865.75;;;9.84;49.78
29941;BME280;16801;53.562;10.038;2023-03-04T11:01:36;101851.84;;;10.03;48.95
29941;BME280;16801;53.562;10.038;2023-03-04T11:05:06;101861.88;;;9.76;48.79
29941;BME280;16801;53.562;10.038;2023-03-04T11:08:35;101865.41;;;10.26;47.00
29941;BME280;16801;53.562;10.038;2023-03-04T11:12:00;101857.34;;;10.14;47.02
29941;BME280;16801;53.562;10.038;2023-03-04T11:15:23;101857.13;;;10.29;46.60
29941;BME280;16801;53.562;10.038;2023-03-04T11:18:48;101865.19;;;10.04;46.64
29941;BME280;16801;53.562;10.038;2023-03-04T11:22:12;101847.03;;;10.93;44.72
29941;BME280;16801;53.562;10.038;2023-03-04T11:25:37;101854.66;;;10.99;43.75
29941;BME280;16801;53.562;10.038;2023-03-04T11:29:07;101858.66;;;10.93;43.41
29941;BME280;16801;53.562;10.038;2023-03-04T11:32:36;101853.44;;;11.03;44.24
29941;BME280;16801;53.562;10.038;2023-03-04T11:36:08;101849.53;;;11.07;44.48
29941;BME280;16801;53.562;10.038;2023-03-04T11:39:36;101846.25;;;11.14;45.01
29941;BME280;16801;53.562;10.038;2023-03-04T11:43:00;101854.66;;;10.14;46.55
29941;BME280;16801;53.562;10.038;2023-03-04T11:50:30;101843.66;;;10.29;47.26
29941;BME280;16801;53.562;10.038;2023-03-04T11:54:07;101831.53;;;11.99;44.22
29941;BME280;16801;53.562;10.038;2023-03-04T11:57:37;101834.38;;;11.63;44.64
29941;BME280;16801;53.562;10.038;2023-03-04T12:01:05;101819.88;;;11.53;45.14
29941;BME280;16801;53.562;10.038;2023-03-04T12:04:58;101826.28;;;11.17;45.43
29941;BME280;16801;53.562;10.038;2023-03-04T12:08:38;101832.00;;;11.12;45.90
29941;BME280;16801;53.562;10.038;2023-03-04T12:12:24;101826.28;;;10.93;46.53
29941;BME280;16801;53.562;10.038;2023-03-04T12:15:50;101821.69;;;10.83;47.51
29941;BME280;16801;53.562;10.038;2023-03-04T12:19:24;101807.72;;;11.12;47.37
29941;BME280;16801;53.562;10.038;2023-03-04T12:22:50;101808.78;;;10.99;47.85
29941;BME280;16801;53.562;10.038;2023-03-04T12:26:23;101804.13;;;11.01;46.90
29941;BME280;16801;53.562;10.038;2023-03-04T12:29:49;101819.59;;;10.99;46.92
29941;BME280;16801;53.562;10.038;2023-03-04T12:33:23;101801.16;;;10.93;46.62
29941;BME280;16801;53.562;10.038;2023-03-04T12:36:52;101800.97;;;11.07;47.30
29941;BME280;16801;53.562;10.038;2023-03-04T12:40:29;101801.19;;;10.57;48.59
29941;BME280;16801;53.562;10.038;2023-03-04T12:43:56;101796.78;;;10.56;48.69
29941;BME280;16801;53.562;10.038;2023-03-04T12:47:28;101794.34;;;10.40;49.38
29941;BME280;16801;53.562;10.038;2023-03-04T12:50:58;101797.88;;;10.17;49.54
29941;BME280;16801;53.562;10.038;2023-03-04T12:54:30;101792.50;;;10.53;48.91
29941;BME280;16801;53.562;10.038;2023-03-04T12:57:54;101789.06;;;10.51;47.85
29941;BME280;16801;53.562;10.038;2023-03-04T13:01:21;101786.84;;;15.89;36.12
29941;BME280;16801;53.562;10.038;2023-03-04T13:04:51;101784.13;;;13.03;40.39
29941;BME280;16801;53.562;10.038;2023-03-04T13:08:24;101787.44;;;11.87;43.60
29941;BME280;16801;53.562;10.038;2023-03-04T13:11:53;101784.00;;;11.40;45.55
29941;BME280;16801;53.562;10.038;2023-03-04T13:15:26;101787.16;;;10.88;45.86
29941;BME280;16801;53.562;10.038;2023-03-04T13:18:48;101788.88;;;10.89;46.14
29941;BME280;16801;53.562;10.038;2023-03-04T13:22:31;101787.78;;;11.72;43.82
29941;BME280;16801;53.562;10.038;2023-03-04T13:26:23;101778.50;;;11.52;43.79
29941;BME280;16801;53.562;10.038;2023-03-04T13:29:47;101782.22;;;11.16;43.88
29941;BME280;16801;53.562;10.038;2023-03-04T13:33:45;101771.34;;;11.86;42.44
29941;BME280;16801;53.562;10.038;2023-03-04T13:37:25;101761.38;;;12.09;42.81
29941;BME280;16801;53.562;10.038;2023-03-04T13:41:09;101770.75;;;10.67;44.99
29941;BME280;16801;53.562;10.038;2023-03-04T13:44:59;101780.13;;;10.85;44.14
29941;BME280;16801;53.562;10.038;2023-03-04T13:48:25;101782.75;;;11.67;54.70
29941;BME280;16801;53.562;10.038;2023-03-04T13:51:49;101772.44;;;11.26;44.00
29941;BME280;16801;53.562;10.038;2023-03-04T13:55:32;101774.41;;;10.42;44.60
29941;BME280;16801;53.562;10.038;2023-03-04T13:59:03;101781.81;;;10.75;44.53
29941;BME280;16801;53.562;10.038;2023-03-04T14:02:24;101782.41;;;10.68;44.17
29941;BME280;16801;53.562;10.038;2023-03-04T14:05:45;101783.38;;;10.90;43.46
29941;BME280;16801;53.562;10.038;2023-03-04T14:09:13;101780.50;;;10.57;44.31
29941;BME280;16801;53.562;10.038;2023-03-04T14:12:36;101783.34;;;10.43;44.88
29941;BME280;16801;53.562;10.038;2023-03-04T14:15:58;101771.50;;;10.69;44.38
29941;BME280;16801;53.562;10.038;2023-03-04T14:19:23;101786.06;;;10.90;43.81
29941;BME280;16801;53.562;10.038;2023-03-04T14:22:45;101773.91;;;11.19;43.62
29941;BME280;16801;53.562;10.038;2023-03-04T14:26:09;101774.41;;;10.90;44.35
29941;BME280;16801;53.562;10.038;2023-03-04T14:29:30;101776.31;;;10.53;44.46
29941;BME280;16801;53.562;10.038;2023-03-04T14:32:52;101775.94;;;10.81;43.78
29941;BME280;16801;53.562;10.038;2023-03-04T14:36:17;101770.84;;;10.89;43.34
29941;BME280;16801;53.562;10.038;2023-03-04T14:39:38;101766.91;;;10.82;43.48
29941;BME280;16801;53.562;10.038;2023-03-04T14:43:03;101765.38;;;11.48;53.77
29941;BME280;16801;53.562;10.038;2023-03-04T14:46:30;101774.78;;;11.99;48.66
29941;BME280;16801;53.562;10.038;2023-03-04T14:49:53;101770.72;;;12.04;49.57
29941;BME280;16801;53.562;10.038;2023-03-04T14:53:16;101767.03;;;11.15;44.35
29941;BME280;16801;53.562;10.038;2023-03-04T14:56:42;101771.94;;;10.63;46.11
29941;BME280;16801;53.562;10.038;2023-03-04T15:00:32;101762.88;;;10.64;46.74
29941;BME280;16801;53.562;10.038;2023-03-04T15:03:56;101769.06;;;10.30;47.50
29941;BME280;16801;53.562;10.038;2023-03-04T15:07:24;101768.97;;;10.19;48.42
29941;BME280;16801;53.562;10.038;2023-03-04T15:10:53;101777.72;;;10.46;47.68
29941;BME280;16801;53.562;10.038;2023-03-04T15:14:40;101771.88;;;10.16;48.46
29941;BME280;16801;53.562;10.038;2023-03-04T15:18:11;101770.22;;;9.64;49.79
29941;BME280;16801;53.562;10.038;2023-03-04T15:21:36;101776.56;;;9.76;49.57
29941;BME280;16801;53.562;10.038;2023-03-04T15:24:58;101774.84;;;9.50;49.88
29941;BME280;16801;53.562;10.038;2023-03-04T15:28:20;101774.53;;;9.54;48.87
29941;BME280;16801;53.562;10.038;2023-03-04T15:31:41;101772.91;;;9.52;48.97
29941;BME280;16801;53.562;10.038;2023-03-04T15:35:05;101781.28;;;9.60;49.35
29941;BME280;16801;53.562;10.038;2023-03-04T15:38:28;101774.63;;;9.53;49.35
29941;BME280;16801;53.562;10.038;2023-03-04T15:41:49;101777.53;;;9.37;50.11
29941;BME280;16801;53.562;10.038;2023-03-04T15:45:19;101774.72;;;9.64;50.05
29941;BME280;16801;53.562;10.038;2023-03-04T15:48:40;101778.81;;;9.19;50.62
29941;BME280;16801;53.562;10.038;2023-03-04T15:52:04;101775.59;;;9.64;49.54
29941;BME280;16801;53.562;10.038;2023-03-04T15:55:25;101775.91;;;9.73;49.86
29941;BME280;16801;53.562;10.038;2023-03-04T15:58:51;101790.34;;;9.34;49.94
29941;BME280;16801;53.562;10.038;2023-03-04T16:02:18;101774.41;;;9.43;50.07
29941;BME280;16801;53.562;10.038;2023-03-04T16:05:39;101769.13;;;9.42;50.71
29941;BME280;16801;53.562;10.038;2023-03-04T16:09:02;101764.19;;;9.61;50.02
29941;BME280;16801;53.562;10.038;2023-03-04T16:12:25;101775.75;;;8.99;51.21
29941;BME280;16801;53.562;10.038;2023-03-04T16:15:47;101768.56;;;9.24;51.11
29941;BME280;16801;53.562;10.038;2023-03-04T16:19:08;101769.00;;;8.79;52.43
29941;BME280;16801;53.562;10.038;2023-03-04T16:22:29;101768.28;;;8.90;52.38
29941;BME280;16801;53.562;10.038;2023-03-04T16:25:54;101776.22;;;8.78;52.13
29941;BME280;16801;53.562;10.038;2023-03-04T16:29:15;101765.38;;;8.80;52.33
29941;BME280;16801;53.562;10.038;2023-03-04T16:32:36;101764.97;;;8.86;52.02
29941;BME280;16801;53.562;10.038;2023-03-04T16:35:57;101758.81;;;8.84;52.83
29941;BME280;16801;53.562;10.038;2023-03-04T16:39:20;101753.41;;;8.71;53.41
29941;BME280;16801;53.562;10.038;2023-03-04T16:42:43;101759.66;;;8.84;52.71
29941;BME280;16801;53.562;10.038;2023-03-04T16:46:04;101768.66;;;9.10;52.29
29941;BME280;16801;53.562;10.038;2023-03-04T16:49:25;101747.75;;;8.89;52.02
29941;BME280;16801;53.562;10.038;2023-03-04T16:52:49;101755.94;;;9.00;51.41
29941;BME280;16801;53.562;10.038;2023-03-04T16:56:12;101754.16;;;8.73;52.48
29941;BME280;16801;53.562;10.038;2023-03-04T16:59:35;101754.28;;;8.84;51.66
29941;BME280;16801;53.562;10.038;2023-03-04T17:02:58;101751.81;;;8.81;51.32
29941;BME280;16801;53.562;10.038;2023-03-04T17:06:20;101759.16;;;8.92;51.24
29941;BME280;16801;53.562;10.038;2023-03-04T17:09:41;101747.88;;;8.60;52.02
29941;BME280;16801;53.562;10.038;2023-03-04T17:13:02;101758.41;;;8.90;51.14
29941;BME280;16801;53.562;10.038;2023-03-04T17:16:24;101766.09;;;8.69;51.73
29941;BME280;16801;53.562;10.038;2023-03-04T17:19:45;101766.94;;;8.70;51.67
29941;BME280;16801;53.562;10.038;2023-03-04T17:23:06;101769.06;;;8.92;51.09
29941;BME280;16801;53.562;10.038;2023-03-04T17:26:27;101759.84;;;8.42;51.58
29941;BME280;16801;53.562;10.038;2023-03-04T17:29:48;101753.31;;;8.73;50.95
29941;BME280;16801;53.562;10.038;2023-03-04T17:33:13;101769.31;;;8.48;52.17
29941;BME280;16801;53.562;10.038;2023-03-04T17:36:34;101769.28;;;8.35;52.48
29941;BME280;16801;53.562;10.038;2023-03-04T17:39:55;101765.63;;;8.63;51.75
29941;BME280;16801;53.562;10.038;2023-03-04T17:43:16;101774.28;;;8.54;51.73
29941;BME280;16801;53.562;10.038;2023-03-04T17:46:36;101771.50;;;8.55;51.17